createdAt,value
2019-01-22T00:02:28.121Z,113.27
2019-01-22T00:04:56.422Z,129.10
2019-01-22T00:07:25.084Z,111.83
2019-01-22T00:09:53.291Z,111.50
2019-01-22T00:12:21.512Z,122.13
2019-01-22T00:14:49.838Z,114.17
2019-01-22T00:17:18.100Z,126.60
2019-01-22T00:19:46.289Z,122.73
2019-01-22T00:22:14.800Z,118.10
2019-01-22T00:24:42.993Z,122.93
2019-01-22T00:27:11.263Z,123.70
2019-01-22T00:29:39.500Z,101.93
2019-01-22T00:32:07.776Z,111.53
2019-01-22T00:34:36.001Z,119.80
2019-01-22T00:37:04.617Z,117.77
2019-01-22T00:39:32.908Z,124.37
2019-01-22T00:42:01.175Z,107.73
2019-01-22T00:44:29.380Z,118.13
2019-01-22T00:46:57.565Z,110.93
2019-01-22T00:49:25.796Z,116.23
2019-01-22T00:51:54.055Z,104.50
2019-01-22T00:54:23.191Z,125.00
2019-01-22T00:56:51.490Z,123.77
2019-01-22T00:59:19.794Z,117.17
2019-01-22T01:01:48.084Z,128.73
2019-01-22T01:04:16.354Z,120.80
2019-01-22T01:06:44.573Z,120.50
2019-01-22T01:09:12.867Z,125.00
2019-01-22T01:11:41.055Z,118.27
2019-01-22T01:14:10.241Z,120.07
2019-01-22T01:16:38.523Z,130.13
2019-01-22T01:19:07.093Z,114.43
2019-01-22T01:21:35.325Z,120.37
2019-01-22T01:24:03.690Z,116.07
2019-01-22T01:26:31.993Z,127.93
2019-01-22T01:29:00.268Z,126.53
2019-01-22T01:31:28.471Z,116.60
2019-01-22T01:33:57.942Z,115.13
2019-01-22T01:36:26.226Z,121.37
2019-01-22T01:38:55.436Z,121.37
2019-01-22T01:41:23.629Z,125.57
2019-01-22T01:43:51.876Z,134.23
2019-01-22T01:46:20.062Z,123.27
2019-01-22T01:48:48.644Z,125.27
2019-01-22T01:51:16.837Z,123.23
2019-01-22T01:53:45.036Z,114.07
2019-01-22T01:56:13.304Z,113.80
2019-01-22T01:58:41.554Z,114.47
2019-01-22T02:01:09.815Z,117.83
2019-01-22T02:03:38.113Z,118.13
2019-01-22T02:06:06.421Z,117.73
2019-01-22T02:08:34.612Z,112.17
2019-01-22T02:11:02.808Z,121.17
2019-01-22T02:13:31.029Z,106.50
2019-01-22T02:16:03.514Z,111.13
2019-01-22T02:18:43.531Z,114.00
2019-01-22T02:21:16.267Z,112.50
2019-01-22T02:23:46.003Z,106.37
2019-01-22T02:26:18.657Z,126.60
2019-01-22T02:28:51.352Z,106.10
2019-01-22T02:31:24.006Z,127.10
2019-01-22T02:33:53.765Z,128.00
2019-01-22T02:36:29.536Z,115.83
2019-01-22T02:39:02.114Z,118.40
2019-01-22T02:41:31.864Z,113.10
2019-01-22T02:44:07.590Z,121.43
2019-01-22T02:46:37.422Z,127.93
2019-01-22T02:49:09.817Z,128.13
2019-01-22T02:51:42.612Z,119.40
2019-01-22T02:54:12.105Z,113.90
2019-01-22T02:56:41.904Z,124.17
2019-01-22T02:59:20.661Z,111.37
2019-01-22T03:02:08.635Z,124.57
2019-01-22T03:04:38.482Z,113.37
2019-01-22T03:07:08.314Z,120.53
2019-01-22T03:09:38.323Z,120.70
2019-01-22T03:12:10.874Z,122.20
2019-01-22T03:14:43.360Z,113.60
2019-01-22T03:17:13.122Z,107.80
2019-01-22T03:19:59.706Z,116.87
2019-01-22T03:22:29.537Z,110.07
2019-01-22T03:25:08.114Z,117.90
2019-01-22T03:27:43.596Z,108.90
2019-01-22T03:30:16.090Z,108.60
2019-01-22T03:32:48.836Z,104.93
2019-01-22T03:35:18.681Z,116.13
2019-01-22T03:37:57.484Z,111.90
2019-01-22T03:40:30.161Z,110.60
2019-01-22T03:43:05.636Z,99.67
2019-01-22T03:45:44.083Z,105.00
2019-01-22T03:48:14.205Z,109.30
2019-01-22T03:50:52.794Z,98.37
2019-01-22T03:53:28.247Z,108.67
2019-01-22T03:56:00.652Z,106.03
2019-01-22T03:58:28.886Z,99.70
2019-01-22T04:00:58.825Z,98.77
2019-01-22T04:03:27.049Z,114.53
2019-01-22T04:05:55.250Z,107.00
2019-01-22T04:08:23.561Z,97.73
2019-01-22T04:10:52.791Z,117.10
2019-01-22T04:13:20.976Z,97.20
2019-01-22T04:15:49.176Z,106.17
2019-01-22T04:18:17.376Z,105.37
2019-01-22T04:20:45.839Z,111.00
2019-01-22T04:23:15.216Z,105.80
2019-01-22T04:25:44.960Z,119.47
2019-01-22T04:28:14.696Z,106.07
2019-01-22T04:30:56.745Z,113.00
2019-01-22T04:33:26.522Z,93.67
2019-01-22T04:36:12.773Z,95.70
2019-01-22T04:38:42.533Z,100.20
2019-01-22T04:41:21.552Z,97.43
2019-01-22T04:43:57.154Z,105.37
2019-01-22T04:46:26.972Z,106.90
2019-01-22T04:48:59.367Z,98.40
2019-01-22T04:51:35.069Z,96.07
2019-01-22T04:54:09.664Z,96.43
2019-01-22T04:56:39.258Z,113.30
2019-01-22T04:59:24.335Z,119.50
2019-01-22T05:02:06.439Z,108.87
2019-01-22T05:04:36.169Z,95.83
2019-01-22T05:07:17.892Z,95.37
2019-01-22T05:09:50.932Z,109.33
2019-01-22T05:12:20.689Z,102.00
2019-01-22T05:15:06.960Z,97.60
2019-01-22T05:17:36.684Z,96.87
2019-01-22T05:20:06.449Z,91.83
2019-01-22T05:22:36.290Z,105.13
2019-01-22T05:25:08.987Z,89.60
2019-01-22T05:27:38.707Z,100.77
2019-01-22T05:30:23.923Z,101.43
2019-01-22T05:33:10.032Z,107.10
2019-01-22T05:35:56.425Z,97.83
2019-01-22T05:38:32.244Z,103.90
2019-01-22T05:41:11.208Z,103.93
2019-01-22T05:43:44.105Z,104.80
2019-01-22T05:46:19.588Z,102.23
2019-01-22T05:48:55.227Z,99.40
2019-01-22T05:51:24.961Z,99.40
2019-01-22T05:54:00.418Z,92.83
2019-01-22T05:56:30.190Z,104.53
2019-01-22T05:59:08.866Z,94.77
2019-01-22T06:01:38.593Z,96.93
2019-01-22T06:04:08.336Z,100.77
2019-01-22T06:06:47.321Z,96.93
2019-01-22T06:09:23.045Z,97.40
2019-01-22T06:12:09.469Z,95.13
2019-01-22T06:14:41.869Z,93.60
2019-01-22T06:17:14.534Z,113.70
2019-01-22T06:19:44.309Z,101.03
2019-01-22T06:22:31.007Z,104.60
2019-01-22T06:25:00.748Z,101.80
2019-01-22T06:27:29.033Z,99.50
2019-01-22T06:30:04.813Z,99.90
2019-01-22T06:32:34.564Z,96.50
2019-01-22T06:35:04.304Z,99.70
2019-01-22T06:37:36.748Z,100.90
2019-01-22T06:40:06.501Z,98.43
2019-01-22T06:42:36.256Z,108.43
2019-01-22T06:45:06.018Z,94.23
2019-01-22T06:47:35.739Z,103.50
2019-01-22T06:50:11.648Z,107.83
2019-01-22T06:52:41.376Z,102.20
2019-01-22T06:55:11.139Z,97.53
2019-01-22T06:57:57.458Z,97.53
2019-01-22T07:00:45.240Z,95.27
2019-01-22T07:03:15.001Z,101.07
2019-01-22T07:05:47.621Z,98.67
2019-01-22T07:08:26.254Z,103.70
2019-01-22T07:10:55.987Z,94.13
2019-01-22T07:13:25.716Z,95.63
2019-01-22T07:15:58.461Z,95.23
2019-01-22T07:18:28.182Z,98.47
2019-01-22T07:21:09.908Z,101.67
2019-01-22T07:23:39.712Z,104.73
2019-01-22T07:26:09.469Z,92.80
2019-01-22T07:28:42.049Z,105.37
2019-01-22T07:31:23.800Z,87.70
2019-01-22T07:34:10.037Z,94.47
2019-01-22T07:36:48.705Z,105.00
2019-01-22T07:39:18.472Z,104.07
2019-01-22T07:41:48.229Z,101.90
2019-01-22T07:44:33.197Z,98.80
2019-01-22T07:47:02.949Z,107.40
2019-01-22T07:49:35.593Z,107.40
2019-01-22T07:52:11.584Z,136.73
2019-01-22T07:54:53.555Z,104.43
2019-01-22T07:57:18.776Z,101.70
2019-01-22T07:59:54.506Z,93.50
2019-01-22T08:02:24.257Z,100.83
2019-01-22T08:05:10.850Z,93.30
2019-01-22T08:07:54.409Z,99.10
2019-01-22T08:10:40.631Z,91.67
2019-01-22T08:13:19.591Z,95.57
2019-01-22T08:15:49.317Z,95.00
2019-01-22T08:18:25.168Z,108.60
2019-01-22T08:20:54.900Z,98.07
2019-01-22T08:23:39.965Z,91.47
2019-01-22T08:26:12.348Z,96.10
2019-01-22T08:28:51.260Z,89.53
2019-01-22T08:31:23.876Z,95.07
2019-01-22T08:33:53.669Z,93.10
2019-01-22T08:36:26.413Z,92.20
2019-01-22T08:39:08.168Z,98.67
2019-01-22T08:41:49.952Z,96.70
2019-01-22T08:44:28.717Z,97.20
2019-01-22T08:47:01.425Z,102.70
2019-01-22T08:49:31.187Z,106.10
2019-01-22T08:52:03.633Z,100.43
2019-01-22T08:54:45.358Z,110.43
2019-01-22T08:57:15.117Z,101.93
2019-01-22T08:59:50.765Z,101.97
2019-01-22T09:02:23.140Z,95.73
2019-01-22T09:04:55.764Z,93.67
2019-01-22T09:07:43.842Z,91.50
2019-01-22T09:10:25.750Z,98.30
2019-01-22T09:12:58.048Z,88.03
2019-01-22T09:15:27.821Z,84.27
2019-01-22T09:18:00.202Z,86.53
2019-01-22T09:20:35.645Z,87.40
2019-01-22T09:23:05.379Z,85.67
2019-01-22T09:25:41.248Z,92.20
2019-01-22T09:28:16.902Z,80.83
2019-01-22T09:30:49.699Z,80.30
2019-01-22T09:33:22.386Z,85.63
2019-01-22T09:35:57.759Z,92.00
2019-01-22T09:38:25.944Z,85.50
2019-01-22T09:40:54.169Z,86.90
2019-01-22T09:43:22.381Z,85.67
2019-01-22T09:45:50.604Z,82.77
2019-01-22T09:48:18.804Z,78.50
2019-01-22T09:50:47.021Z,81.23
2019-01-22T09:53:15.244Z,85.70
2019-01-22T09:55:43.458Z,80.37
2019-01-22T09:58:11.639Z,90.77
2019-01-22T10:00:39.980Z,73.83
2019-01-22T10:03:08.265Z,85.37
2019-01-22T10:05:36.478Z,70.30
2019-01-22T10:08:04.676Z,77.93
2019-01-22T10:10:32.857Z,75.80
2019-01-22T10:13:01.054Z,82.03
2019-01-22T10:15:29.272Z,73.50
2019-01-22T10:17:57.476Z,77.87
2019-01-22T10:20:25.660Z,81.13
2019-01-22T10:22:53.868Z,78.67
2019-01-22T10:25:22.043Z,84.37
2019-01-22T10:27:50.269Z,76.10
2019-01-22T10:30:22.200Z,79.80
2019-01-22T10:32:50.423Z,72.83
2019-01-22T10:35:18.708Z,82.83
2019-01-22T10:37:46.889Z,72.97
2019-01-22T10:40:16.561Z,75.10
2019-01-22T10:42:44.788Z,75.97
2019-01-22T10:45:14.293Z,69.63
2019-01-22T10:47:42.507Z,72.90
2019-01-22T10:50:11.928Z,81.10
2019-01-22T10:52:40.162Z,67.03
2019-01-22T10:55:10.044Z,76.90
2019-01-22T10:57:38.405Z,68.80
2019-01-22T11:00:08.161Z,70.43
2019-01-22T11:02:36.387Z,74.03
2019-01-22T11:05:06.249Z,73.23
2019-01-22T11:07:34.429Z,70.57
2019-01-22T11:10:02.916Z,68.77
2019-01-22T11:12:31.124Z,62.63
2019-01-22T11:14:59.307Z,69.17
2019-01-22T11:17:27.526Z,67.57
2019-01-22T11:19:55.749Z,72.80
2019-01-22T11:22:23.934Z,64.93
2019-01-22T11:24:52.875Z,60.50
2019-01-22T11:27:21.231Z,63.93
2019-01-22T11:29:49.449Z,68.73
2019-01-22T11:32:17.628Z,70.47
2019-01-22T11:34:45.856Z,63.43
2019-01-22T11:37:14.108Z,66.83
2019-01-22T11:39:42.337Z,63.27
2019-01-22T11:42:10.516Z,62.23
2019-01-22T11:44:38.740Z,61.13
2019-01-22T11:47:06.956Z,61.93
2019-01-22T11:49:35.169Z,65.30
2019-01-22T12:19:04.797Z,56.50
2019-01-22T15:40:32.840Z,58.67
2019-01-22T15:43:01.036Z,52.17
2019-01-22T15:45:29.337Z,52.20
2019-01-22T15:47:57.609Z,54.77
2019-01-22T15:50:25.814Z,53.70
2019-01-22T15:52:54.033Z,54.33
2019-01-22T15:55:23.583Z,55.03
2019-01-22T15:57:51.840Z,51.27
2019-01-22T16:00:21.221Z,56.43
2019-01-22T16:02:49.496Z,55.43
2019-01-22T16:05:17.791Z,57.80
2019-01-22T16:07:46.044Z,64.57
2019-01-22T16:10:14.310Z,63.00
2019-01-22T16:12:42.525Z,60.87
2019-01-22T16:15:11.988Z,58.80
2019-01-22T16:17:40.265Z,59.10
2019-01-22T16:20:15.444Z,63.67
2019-01-22T16:22:43.628Z,58.97
2019-01-22T16:25:12.003Z,55.67
2019-01-22T16:27:40.221Z,64.20
2019-01-22T16:30:12.814Z,58.97
2019-01-22T16:32:41.000Z,63.10
2019-01-22T16:35:10.505Z,68.27
2019-01-22T16:37:38.688Z,59.80
2019-01-22T16:40:08.478Z,62.53
2019-01-22T16:42:36.671Z,58.93
2019-01-22T16:45:06.412Z,62.10
2019-01-22T16:47:34.616Z,58.57
2019-01-22T16:50:03.110Z,65.87
2019-01-22T16:52:31.337Z,63.13
2019-01-22T16:54:59.512Z,65.37
2019-01-22T16:57:27.741Z,66.73
2019-01-22T16:59:55.963Z,57.83
2019-01-22T17:02:24.185Z,60.27
2019-01-22T17:04:52.472Z,70.70
2019-01-22T17:07:20.681Z,67.37
2019-01-22T17:09:48.876Z,67.63
2019-01-22T17:12:17.062Z,53.90
2019-01-22T17:14:45.313Z,67.65
2019-01-22T17:17:13.526Z,61.20
2019-01-22T17:19:41.742Z,66.70
2019-01-22T17:22:09.962Z,60.83
2019-01-22T17:24:38.140Z,70.73
2019-01-22T17:27:07.392Z,64.47
2019-01-22T17:29:35.744Z,64.00
2019-01-22T17:32:11.312Z,66.43
2019-01-22T17:34:40.101Z,64.20
2019-01-22T17:37:08.325Z,73.57
2019-01-22T17:39:36.553Z,67.97
2019-01-22T17:42:04.774Z,77.20
2019-01-22T17:44:33.010Z,71.00
2019-01-22T17:47:01.197Z,70.93
2019-01-22T17:49:29.395Z,68.67
2019-01-22T17:51:57.672Z,68.50
2019-01-22T17:54:25.896Z,70.47
2019-01-22T17:56:54.117Z,75.75
2019-01-22T17:59:22.291Z,72.03
2019-01-22T18:01:50.524Z,77.07
2019-01-22T18:04:18.700Z,67.33
2019-01-22T18:06:46.935Z,67.00
2019-01-22T18:09:15.145Z,69.83
2019-01-22T18:11:43.376Z,80.20
2019-01-22T18:14:11.585Z,70.03
2019-01-22T18:16:39.790Z,72.13
2019-01-22T18:19:07.988Z,72.53
2019-01-22T18:21:36.209Z,73.83
2019-01-22T18:24:04.459Z,66.90
2019-01-22T18:26:32.642Z,66.60
2019-01-22T18:29:00.827Z,67.10
2019-01-22T18:31:29.023Z,68.77
2019-01-22T18:33:57.244Z,72.50
2019-01-22T18:36:25.443Z,79.80
2019-01-22T18:38:53.716Z,75.90
2019-01-22T18:41:21.907Z,71.43
2019-01-22T18:43:50.125Z,71.40
2019-01-22T18:46:18.312Z,75.23
2019-01-22T18:48:46.529Z,66.17
2019-01-22T18:51:15.820Z,80.57
2019-01-22T18:53:44.020Z,70.97
2019-01-22T18:56:12.258Z,75.60
2019-01-22T18:58:40.489Z,76.17
2019-01-22T19:01:08.697Z,67.03
2019-01-22T19:03:36.993Z,68.23
2019-01-22T19:06:05.213Z,66.83
2019-01-22T19:08:33.437Z,71.23
2019-01-22T19:11:01.649Z,72.90
2019-01-22T19:13:29.873Z,76.73
2019-01-22T19:15:58.055Z,66.33
2019-01-22T19:18:26.245Z,72.30
2019-01-22T19:20:54.435Z,72.13
2019-01-22T19:23:22.640Z,65.50
2019-01-22T19:25:50.882Z,67.83
2019-01-22T19:28:19.100Z,63.73
2019-01-22T19:30:47.377Z,68.33
2019-01-22T19:33:15.632Z,70.03
2019-01-22T19:35:46.605Z,63.43
2019-01-22T19:38:14.801Z,70.03
2019-01-22T19:40:42.992Z,55.10
2019-01-22T19:43:11.172Z,65.00
2019-01-22T19:45:39.388Z,67.43
2019-01-22T19:48:07.579Z,66.00
2019-01-22T19:50:35.809Z,75.67
2019-01-22T19:53:04.284Z,69.00
2019-01-22T19:55:32.455Z,69.77
2019-01-22T19:58:00.668Z,65.53
2019-01-22T20:00:33.353Z,64.97
2019-01-22T20:03:01.938Z,72.33
2019-01-22T20:05:30.191Z,66.03
2019-01-22T20:07:58.368Z,70.87
2019-01-22T20:10:26.557Z,75.73
2019-01-22T20:12:54.756Z,68.80
2019-01-22T20:15:23.445Z,68.23
2019-01-22T20:17:51.677Z,76.73
2019-01-22T20:20:20.327Z,70.43
2019-01-22T20:22:48.597Z,74.60
2019-01-22T20:25:17.283Z,79.57
2019-01-22T20:27:48.186Z,64.70
2019-01-22T20:30:17.156Z,69.73
2019-01-22T20:32:45.406Z,79.77
2019-01-22T20:35:13.656Z,76.43
2019-01-22T20:37:41.840Z,71.27
2019-01-22T20:40:14.362Z,73.53
2019-01-22T20:42:42.582Z,78.77
2019-01-22T20:45:15.113Z,63.50
2019-01-22T20:47:43.296Z,74.30
2019-01-22T20:50:18.783Z,74.40
2019-01-22T20:52:42.568Z,79.53
2019-01-22T20:55:14.768Z,81.87
2019-01-22T20:57:42.967Z,73.33
2019-01-22T21:00:12.704Z,86.87
2019-01-22T21:02:40.903Z,78.60
2019-01-22T21:05:10.720Z,81.20
2019-01-22T21:07:39.831Z,81.77
2019-01-22T21:10:09.583Z,80.00
2019-01-22T21:12:37.808Z,80.90
2019-01-22T21:15:07.897Z,84.63
2019-01-22T21:17:36.108Z,80.13
2019-01-22T21:20:06.855Z,84.97
2019-01-22T21:22:35.066Z,78.77
2019-01-22T21:25:04.237Z,88.13
2019-01-22T21:27:32.472Z,99.93
2019-01-22T21:30:00.689Z,89.07
2019-01-22T21:32:28.883Z,91.87
2019-01-22T21:34:57.685Z,101.27
2019-01-22T21:37:25.901Z,89.80
2019-01-22T21:39:54.120Z,93.70
2019-01-22T21:42:22.333Z,98.07
2019-01-22T21:44:50.536Z,97.27
2019-01-22T21:47:18.719Z,96.73
2019-01-22T21:49:46.990Z,97.70
2019-01-22T21:52:15.205Z,114.13
2019-01-22T21:54:43.429Z,98.43
2019-01-22T21:57:11.711Z,107.80
2019-01-22T21:59:39.934Z,96.90
2019-01-22T22:02:08.124Z,90.70
2019-01-22T22:04:37.249Z,102.93
2019-01-22T22:07:05.474Z,104.20
2019-01-22T22:09:33.681Z,97.73
2019-01-22T22:12:02.811Z,96.70
2019-01-22T22:14:31.020Z,96.67
2019-01-22T22:16:59.207Z,103.27
2019-01-22T22:19:27.440Z,99.40
2019-01-22T22:21:55.652Z,100.83
2019-01-22T22:24:23.894Z,106.97
2019-01-22T22:26:52.117Z,101.23
2019-01-22T22:29:20.346Z,107.43
2019-01-22T22:31:48.629Z,108.77
2019-01-22T22:34:16.824Z,101.53
2019-01-22T22:36:45.065Z,100.47
2019-01-22T22:39:13.303Z,121.37
2019-01-22T22:41:41.549Z,110.50
2019-01-22T22:44:11.966Z,101.07
2019-01-22T22:46:40.285Z,121.43
2019-01-22T22:49:08.559Z,108.57
2019-01-22T22:51:37.644Z,118.07
2019-01-22T22:54:05.849Z,123.20
2019-01-22T22:56:34.051Z,120.50
2019-01-22T22:59:03.204Z,119.63
2019-01-22T23:01:31.969Z,127.70
2019-01-22T23:04:00.189Z,135.53
2019-01-22T23:06:28.387Z,132.40
2019-01-22T23:08:57.624Z,126.40
2019-01-22T23:11:25.861Z,129.60
2019-01-22T23:13:54.080Z,123.87
2019-01-22T23:16:22.320Z,135.90
2019-01-22T23:18:50.541Z,133.27
2019-01-22T23:21:18.779Z,137.67
2019-01-22T23:23:47.046Z,127.70
2019-01-22T23:26:15.237Z,133.37
2019-01-22T23:28:43.476Z,141.50
2019-01-22T23:31:11.693Z,139.63
2019-01-22T23:33:39.911Z,145.47
2019-01-22T23:36:08.131Z,143.30
2019-01-22T23:38:36.449Z,133.73
2019-01-22T23:41:04.704Z,129.70
2019-01-22T23:43:33.579Z,140.37
2019-01-22T23:46:01.777Z,135.93
2019-01-22T23:48:29.980Z,145.17
2019-01-22T23:50:58.169Z,136.03
2019-01-22T23:53:26.411Z,129.20
2019-01-22T23:55:54.664Z,124.07
2019-01-22T23:58:22.864Z,118.67
